Time;durP1;ratioP1;P1;durP2;ratioP2;P2;SDS_P1;SDS_P2;PMS_P1;PMS_P2;Temp;Humidity;BMP_temperature;BMP_pressure;BME280_temperature;BME280_humidity;BME280_pressure;Samples;Min_cycle;Max_cycle;Signal;HPM_P1;HPM_P2
2022/02/02 00:00:40;;;;;;;8.93;5.30;;;;;;;-145.69;100.00;72457.16;5072722;28;20204;-75
2022/02/02 00:03:09;;;;;;;14.60;5.80;;;;;;;-145.69;100.00;72457.16;5072670;28;20219;-75
2022/02/02 00:05:47;;;;;;;14.30;5.33;;;;;;;-145.69;100.00;72451.19;5072773;28;20238;-74
2022/02/02 00:08:20;;;;;;;10.63;5.10;;;;;;;-145.69;100.00;72469.09;5072782;28;20654;-75
2022/02/02 00:13:40;;;;;;;11.20;5.97;;;;;;;-145.69;100.00;72477.06;5070634;28;20209;-74
2022/02/02 00:16:14;;;;;;;14.03;6.03;;;;;;;-145.69;100.00;72469.09;5072802;28;20203;-74
2022/02/02 00:18:53;;;;;;;16.53;5.87;;;;;;;-145.69;100.00;72465.13;5072838;28;20231;-75
2022/02/02 00:21:25;;;;;;;9.97;5.50;;;;;;;-145.69;100.00;72461.13;5072981;28;20202;-75
2022/02/02 00:23:57;;;;;;;13.37;5.33;;;;;;;-145.69;100.00;72459.16;5072567;28;20194;-76
2022/02/02 00:26:28;;;;;;;11.70;6.10;;;;;;;-145.69;100.00;72443.22;5072690;28;20765;-76
2022/02/02 00:29:02;;;;;;;16.13;5.60;;;;;;;-145.69;100.00;72465.13;5062342;28;20207;-75
2022/02/02 00:31:34;;;;;;;14.70;6.37;;;;;;;-145.69;100.00;72461.13;5052763;28;20203;-76
2022/02/02 00:34:04;;;;;;;14.80;5.53;;;;;;;-145.69;100.00;72463.13;5066314;28;20208;-76
2022/02/02 00:36:44;;;;;;;16.80;6.27;;;;;;;-145.69;100.00;72447.22;5067945;28;20195;-75
2022/02/02 00:39:11;;;;;;;10.57;4.73;;;;;;;-145.69;100.00;72461.13;5051346;28;20199;-76
2022/02/02 00:41:37;;;;;;;16.10;4.70;;;;;;;-145.69;100.00;72457.16;5052954;28;20210;-76
2022/02/02 00:44:08;;;;;;;6.63;3.40;;;;;;;-145.69;100.00;72453.19;5066665;28;20259;-76
2022/02/02 00:46:35;;;;;;;7.13;3.53;;;;;;;-145.69;100.00;72439.25;5072578;28;20280;-76
2022/02/02 00:49:03;;;;;;;4.87;3.13;;;;;;;-145.69;100.00;72441.25;5057714;28;20290;-76
2022/02/02 00:51:38;;;;;;;5.67;3.00;;;;;;;-145.69;100.00;72457.16;5052557;28;20230;-76
2022/02/02 00:54:08;;;;;;;9.80;3.83;;;;;;;-145.69;100.00;72445.22;5066386;28;20190;-76
2022/02/02 00:56:35;;;;;;;8.57;3.53;;;;;;;-145.69;100.00;72443.22;5072321;28;20203;-76
2022/02/02 00:59:01;;;;;;;8.77;3.03;;;;;;;-145.69;100.00;72445.22;5072384;28;20195;-76
2022/02/02 01:01:29;;;;;;;8.17;3.63;;;;;;;-145.69;100.00;72425.31;5072498;28;20206;-75
2022/02/02 01:03:56;;;;;;;10.70;3.43;;;;;;;-145.69;100.00;72411.38;5071984;28;20195;-76
2022/02/02 01:06:24;;;;;;;12.57;4.00;;;;;;;-145.69;100.00;72409.38;5072070;28;20723;-75
2022/02/02 01:09:09;;;;;;;7.00;4.17;;;;;;;-145.69;100.00;72425.31;5072457;28;20209;-75
2022/02/02 01:12:17;;;;;;;9.10;4.17;;;;;;;-145.69;100.00;72417.34;5072043;28;20232;-77
2022/02/02 01:15:29;;;;;;;9.13;4.40;;;;;;;-145.69;100.00;72411.38;5071756;28;20205;-76
2022/02/02 01:20:48;;;;;;;11.97;5.40;;;;;;;-145.69;100.00;72405.41;5072089;28;20561;-76
2022/02/02 01:28:43;;;;;;;15.10;5.17;;;;;;;-145.69;100.00;72409.38;5075696;28;20237;-76
2022/02/02 01:31:14;;;;;;;14.73;4.57;;;;;;;-145.69;100.00;72409.38;5075523;28;20202;-76
2022/02/02 01:33:42;;;;;;;12.70;4.70;;;;;;;-145.69;100.00;72415.38;5075819;28;20237;-76
2022/02/02 01:36:09;;;;;;;11.07;4.73;;;;;;;-145.69;100.00;72429.28;5075823;28;20658;-76
2022/02/02 01:38:36;;;;;;;10.50;4.30;;;;;;;-145.69;100.00;72425.31;5075640;28;20198;-76
2022/02/02 01:41:10;;;;;;;18.03;5.37;;;;;;;-145.69;100.00;72425.31;5075595;28;20604;-76
2022/02/02 01:43:42;;;;;;;10.63;4.80;;;;;;;-145.69;100.00;72421.34;5075381;28;20209;-76
2022/02/02 01:46:12;;;;;;;10.77;4.47;;;;;;;-145.69;100.00;72413.38;5075635;28;20577;-76
2022/02/02 01:48:44;;;;;;;10.07;4.77;;;;;;;-145.69;100.00;72401.44;5075658;28;20201;-76
2022/02/02 01:51:32;;;;;;;11.07;5.53;;;;;;;-145.69;100.00;72405.41;5075323;28;20191;-76
2022/02/02 01:54:04;;;;;;;14.30;4.80;;;;;;;-145.69;100.00;72413.38;5075676;28;20252;-76
2022/02/02 01:56:30;;;;;;;11.73;4.87;;;;;;;-145.69;100.00;72403.41;5075589;28;20195;-76
2022/02/02 01:59:11;;;;;;;9.33;4.70;;;;;;;-145.69;100.00;72403.41;5075614;28;20203;-76
2022/02/02 02:01:38;;;;;;;16.80;5.13;;;;;;;-145.69;100.00;72407.41;5074090;28;20199;-75
2022/02/02 02:04:04;;;;;;;10.83;4.67;;;;;;;-145.69;100.00;72405.41;5075068;28;20207;-76
2022/02/02 02:06:32;;;;;;;15.83;5.43;;;;;;;-145.69;100.00;72399.44;5074354;28;20226;-76
2022/02/02 02:08:59;;;;;;;9.20;4.50;;;;;;;-145.69;100.00;72401.44;5075320;28;20210;-76
2022/02/02 02:11:25;;;;;;;16.07;5.80;;;;;;;-145.69;100.00;72397.44;5075329;28;20210;-76
2022/02/02 02:16:47;;;;;;;11.97;5.10;;;;;;;-145.69;100.00;72395.47;5131229;27;20350;-77
2022/02/02 02:19:13;;;;;;;14.40;5.27;;;;;;;-145.69;100.00;72397.44;5110662;28;20206;-77
2022/02/02 02:21:39;;;;;;;21.50;6.10;;;;;;;-145.69;100.00;72395.47;5110922;28;20198;-77
2022/02/02 02:24:08;;;;;;;19.23;6.20;;;;;;;-145.69;100.00;72407.41;5110534;28;20203;-77
2022/02/02 02:26:39;;;;;;;14.20;5.60;;;;;;;-145.69;100.00;72411.38;5103340;28;20208;-76
2022/02/02 02:29:20;;;;;;;10.53;5.03;;;;;;;-145.69;100.00;72421.34;5110753;28;20292;-77
2022/02/02 02:31:57;;;;;;;20.60;5.53;;;;;;;-145.69;100.00;72417.34;5110600;28;20197;-77
2022/02/02 02:34:36;;;;;;;16.70;5.70;;;;;;;-145.69;100.00;72413.38;5110309;28;20803;-77
2022/02/02 02:39:57;;;;;;;14.03;5.07;;;;;;;-145.69;100.00;72405.41;5087993;28;20198;-76
2022/02/02 02:56:07;;;;;;;16.93;5.97;;;;;;;-145.69;100.00;72405.41;5089647;28;20225;-76
2022/02/02 03:01:29;;;;;;;14.60;5.57;;;;;;;-145.69;100.00;72413.38;5083382;28;20201;-77
2022/02/02 03:58:45;;;;;;;19.23;5.90;;;;;;;-145.69;100.00;72393.47;5077708;28;20200;-77
2022/02/02 04:01:22;;;;;;;15.10;4.57;;;;;;;-145.69;100.00;72397.44;5095188;28;20194;-77
2022/02/02 04:04:17;;;;;;;12.43;5.07;;;;;;;-145.69;100.00;72397.44;5079507;28;20198;-77
2022/02/02 04:06:57;;;;;;;15.07;4.57;;;;;;;-145.69;100.00;72397.44;5074907;28;20209;-77
2022/02/02 04:09:28;;;;;;;14.83;5.10;;;;;;;-145.69;100.00;72393.47;5074349;28;20210;-77
2022/02/02 04:12:03;;;;;;;19.40;4.37;;;;;;;-145.69;100.00;72393.47;5074781;28;20198;-77
2022/02/02 04:17:50;;;;;;;10.00;4.03;;;;;;;-145.69;100.00;72397.44;5090436;27;20555;-77
2022/02/02 04:53:54;;;;;;;12.93;3.53;;;;;;;-145.69;100.00;72401.44;5090030;28;20260;-78
2022/02/02 04:56:31;;;;;;;13.97;3.67;;;;;;;-145.69;100.00;72417.34;5089483;28;20229;-78
2022/02/02 04:59:07;;;;;;;19.57;3.63;;;;;;;-145.69;100.00;72421.34;5049392;28;20207;-78
2022/02/02 05:05:05;;;;;;;13.53;4.03;;;;;;;-145.69;100.00;72425.31;5007655;28;20544;-78
2022/02/02 05:07:39;;;;;;;15.83;3.73;;;;;;;-145.69;100.00;72413.38;5049549;28;20238;-77
2022/02/02 05:10:15;;;;;;;16.87;3.67;;;;;;;-145.69;100.00;72421.34;5075854;28;20209;-77
2022/02/02 05:18:20;;;;;;;17.80;3.90;;;;;;;-145.69;100.00;72415.38;5069561;28;20195;-78
2022/02/02 05:21:27;;;;;;;24.70;4.30;;;;;;;-145.69;100.00;72417.34;5069235;28;20195;-77
2022/02/02 05:43:33;;;;;;;11.53;3.57;;;;;;;-145.69;100.00;72425.31;5075020;28;20612;-78
2022/02/02 05:48:36;;;;;;;14.70;3.73;;;;;;;-145.69;100.00;72429.28;5075202;28;20226;-77
2022/02/02 05:51:15;;;;;;;15.83;3.97;;;;;;;-145.69;100.00;72429.28;5071287;28;20199;-78
2022/02/02 05:53:44;;;;;;;19.37;4.53;;;;;;;-145.69;100.00;72437.25;5055247;28;20223;-78
2022/02/02 05:56:12;;;;;;;20.30;4.27;;;;;;;-145.69;100.00;72443.22;5055276;28;20227;-78
2022/02/02 05:58:40;;;;;;;14.60;4.00;;;;;;;-145.69;100.00;72453.19;5054680;28;20203;-77
2022/02/02 06:01:08;;;;;;;21.50;3.47;;;;;;;-145.69;100.00;72449.19;5055135;28;20211;-78
2022/02/02 06:03:43;;;;;;;20.50;4.37;;;;;;;-145.69;100.00;72451.19;5061692;28;20207;-78
2022/02/02 06:06:12;;;;;;;13.73;3.40;;;;;;;-145.69;100.00;72461.13;5075150;28;20230;-78
2022/02/02 06:08:42;;;;;;;18.03;3.27;;;;;;;-145.69;100.00;72461.13;5074799;28;20206;-78
2022/02/02 06:11:14;;;;;;;16.67;3.53;;;;;;;-145.69;100.00;72453.19;5074459;28;20593;-77
2022/02/02 06:13:43;;;;;;;17.43;3.50;;;;;;;-145.69;100.00;72449.19;5055052;28;20200;-77
2022/02/02 06:16:10;;;;;;;23.40;3.80;;;;;;;-145.69;100.00;72447.22;5054260;28;20330;-77
2022/02/02 06:18:40;;;;;;;15.73;3.03;;;;;;;-145.69;100.00;72447.22;5054860;28;20200;-77
2022/02/02 06:21:09;;;;;;;19.83;3.67;;;;;;;-145.69;100.00;72451.19;5054876;28;20298;-77
2022/02/02 06:23:39;;;;;;;15.63;2.80;;;;;;;-145.69;100.00;72461.13;5054693;28;20199;-77
2022/02/02 06:26:13;;;;;;;19.37;4.13;;;;;;;-145.69;100.00;72467.13;5038466;28;20200;-77
2022/02/02 06:28:45;;;;;;;15.10;2.97;;;;;;;-145.69;100.00;72461.13;5034313;28;20207;-77
2022/02/02 06:31:15;;;;;;;15.20;3.17;;;;;;;-145.69;100.00;72457.16;5034608;28;20567;-77
2022/02/02 06:33:42;;;;;;;21.63;4.23;;;;;;;-145.69;100.00;72455.16;5038225;28;20659;-77
2022/02/02 06:36:11;;;;;;;20.80;3.50;;;;;;;-145.69;100.00;72461.13;5074681;28;20230;-77
2022/02/02 06:38:39;;;;;;;21.80;4.40;;;;;;;-145.69;100.00;72455.16;5073743;28;20203;-77
2022/02/02 06:41:13;;;;;;;19.63;3.53;;;;;;;-145.69;100.00;72457.16;5074283;28;20203;-77
2022/02/02 06:43:41;;;;;;;15.73;3.50;;;;;;;-145.69;100.00;72453.19;5073618;28;20210;-77
2022/02/02 06:46:07;;;;;;;11.70;2.40;;;;;;;-145.69;100.00;72445.22;5069784;28;20286;-77
2022/02/02 06:48:37;;;;;;;22.10;3.00;;;;;;;-145.69;100.00;72437.25;5054352;28;20294;-77
2022/02/02 06:51:10;;;;;;;16.87;3.47;;;;;;;-145.69;100.00;72441.25;5053945;28;20204;-78
2022/02/02 06:53:53;;;;;;;16.37;2.73;;;;;;;-145.69;100.00;72453.19;5053765;28;20815;-77
2022/02/02 06:56:34;;;;;;;12.03;3.33;;;;;;;-145.69;100.00;72459.16;5054122;28;20234;-78
2022/02/02 06:59:15;;;;;;;22.33;3.47;;;;;;;-145.69;100.00;72461.13;5062712;28;20240;-77
2022/02/02 07:01:53;;;;;;;14.40;2.90;;;;;;;-145.69;100.00;72463.13;5073983;28;20203;-78
2022/02/02 07:04:49;;;;;;;15.73;3.43;;;;;;;-145.69;100.00;72453.19;5073791;28;20201;-78
2022/02/02 07:07:37;;;;;;;9.30;2.57;;;;;;;-145.69;100.00;72455.16;5073750;28;20203;-78
2022/02/02 07:10:15;;;;;;;14.23;2.90;;;;;;;-145.69;100.00;72465.13;5074148;28;20554;-77
2022/02/02 07:13:03;;;;;;;17.17;3.27;;;;;;;-145.69;100.00;72465.13;5072066;28;20539;-77
2022/02/02 07:15:46;;;;;;;16.50;3.20;;;;;;;-145.69;100.00;72469.09;5073377;28;20340;-77
2022/02/02 07:18:22;;;;;;;18.70;3.07;;;;;;;-145.69;100.00;72461.13;5073540;28;20234;-78
2022/02/02 07:20:58;;;;;;;18.30;3.40;;;;;;;-145.69;100.00;72465.13;5073206;28;20630;-78
2022/02/02 07:23:49;;;;;;;18.03;3.33;;;;;;;-145.69;100.00;72485.03;5067527;28;20201;-78
2022/02/02 07:29:09;;;;;;;18.90;3.37;;;;;;;-145.69;100.00;72493.00;5049575;28;20218;-77
2022/02/02 07:31:46;;;;;;;21.73;3.80;;;;;;;-145.69;100.00;72481.03;5053300;28;20261;-77
2022/02/02 07:34:28;;;;;;;20.80;3.83;;;;;;;-145.69;100.00;72498.97;5053467;28;20653;-77
2022/02/02 07:36:59;;;;;;;20.67;3.07;;;;;;;-145.69;100.00;72493.00;5070207;28;20219;-77
2022/02/02 07:39:27;;;;;;;9.60;2.73;;;;;;;-145.69;100.00;72500.94;5073257;28;20205;-77
2022/02/02 07:41:58;;;;;;;18.57;4.27;;;;;;;-145.69;100.00;72500.94;5073192;28;20297;-77
2022/02/02 07:44:31;;;;;;;16.80;3.00;;;;;;;-145.69;100.00;72500.94;5073309;28;20203;-77
2022/02/02 07:47:04;;;;;;;19.20;3.50;;;;;;;-145.69;100.00;72504.94;5071136;28;20658;-77
2022/02/02 07:49:35;;;;;;;24.00;3.70;;;;;;;-145.69;100.00;72504.94;5053114;28;20235;-76
2022/02/02 07:52:02;;;;;;;20.77;6.40;;;;;;;-145.69;100.00;72512.91;5052700;28;20209;-77
2022/02/02 07:54:33;;;;;;;17.70;3.27;;;;;;;-145.69;100.00;72508.91;5053054;28;20206;-77
2022/02/02 07:57:09;;;;;;;21.00;3.80;;;;;;;-145.69;100.00;72506.91;5052394;28;20267;-78
2022/02/02 07:59:47;;;;;;;22.93;4.27;;;;;;;-145.69;100.00;72498.97;5052847;28;20195;-77
2022/02/02 08:02:17;;;;;;;20.03;5.03;;;;;;;-145.69;100.00;72504.94;5053119;28;20261;-77
2022/02/02 08:04:46;;;;;;;15.43;3.43;;;;;;;-145.69;100.00;72518.88;5052694;28;20203;-77
2022/02/02 08:07:22;;;;;;;17.13;3.47;;;;;;;-145.69;100.00;72510.91;5052687;28;20202;-78
2022/02/02 08:09:58;;;;;;;19.77;3.00;;;;;;;-145.69;100.00;72510.91;5052917;28;20302;-77
2022/02/02 08:12:30;;;;;;;19.83;4.83;;;;;;;-145.69;100.00;72510.91;5065128;28;20264;-77
2022/02/02 08:15:03;;;;;;;35.13;6.03;;;;;;;-145.69;100.00;72514.88;5072348;28;20297;-78
2022/02/02 08:17:32;;;;;;;21.47;4.90;;;;;;;-145.69;100.00;72502.94;5072747;28;20227;-78
2022/02/02 08:19:58;;;;;;;24.83;4.87;;;;;;;-145.69;100.00;72520.84;5057502;28;20283;-78
2022/02/02 08:22:29;;;;;;;24.13;4.57;;;;;;;-145.69;100.00;72524.84;5032810;28;20204;-77
2022/02/02 08:24:59;;;;;;;28.30;4.03;;;;;;;-145.69;100.00;72526.81;5069631;28;20229;-78
2022/02/02 08:27:25;;;;;;;22.23;3.57;;;;;;;-145.69;100.00;72526.81;5072700;28;20203;-78
2022/02/02 08:29:55;;;;;;;16.63;3.33;;;;;;;-145.69;100.00;72522.84;5072411;28;20297;-78
2022/02/02 08:32:27;;;;;;;21.33;3.87;;;;;;;-145.69;100.00;72512.91;5072931;28;20195;-78
2022/02/02 08:34:59;;;;;;;20.80;3.43;;;;;;;-145.69;100.00;72510.91;5072985;28;20281;-77
2022/02/02 08:37:33;;;;;;;23.83;3.30;;;;;;;-145.69;100.00;72512.91;5032641;28;20606;-78
2022/02/02 08:40:17;;;;;;;21.83;3.57;;;;;;;-145.69;100.00;72512.91;5032585;28;20655;-78
2022/02/02 08:42:44;;;;;;;15.57;3.80;;;;;;;-145.69;100.00;72510.91;5032682;28;20283;-78
2022/02/02 08:45:19;;;;;;;8.17;2.67;;;;;;;-145.69;100.00;72496.97;5032797;28;20197;-76
2022/02/02 08:47:54;;;;;;;20.33;3.20;;;;;;;-145.69;100.00;72504.94;5041907;28;20198;-77
2022/02/02 08:50:27;;;;;;;19.57;3.13;;;;;;;-145.69;100.00;72514.88;5072470;28;20202;-77
2022/02/02 08:52:57;;;;;;;16.60;2.93;;;;;;;-145.69;100.00;72504.94;5072423;28;20222;-76
2022/02/02 08:55:50;;;;;;;21.33;3.10;;;;;;;-145.69;100.00;72508.91;5072744;28;20198;-77
2022/02/02 08:58:21;;;;;;;16.47;3.47;;;;;;;-145.69;100.00;72512.91;5071588;28;20623;-76
2022/02/02 09:00:49;;;;;;;14.73;3.30;;;;;;;-145.69;100.00;72518.88;5062298;28;20191;-76
2022/02/02 09:06:01;;;;;;;21.67;4.93;;;;;;;-145.69;100.00;72508.91;5055885;28;20656;-77
2022/02/02 09:08:31;;;;;;;16.13;3.73;;;;;;;-145.69;100.00;72510.91;5055809;28;20203;-76
2022/02/02 09:33:51;;;;;;;14.97;2.70;;;;;;;-145.69;100.00;72538.78;5075517;28;20248;-76
2022/02/02 09:36:20;;;;;;;17.70;3.37;;;;;;;-145.69;100.00;72548.72;5072533;28;20640;-76
2022/02/02 09:38:47;;;;;;;14.03;3.27;;;;;;;-145.69;100.00;72548.72;5055901;28;20646;-76
2022/02/02 09:41:35;;;;;;;11.30;2.97;;;;;;;-145.69;100.00;72558.66;5055323;28;20282;-76
2022/02/02 09:44:04;;;;;;;21.73;3.07;;;;;;;-145.69;100.00;72548.72;5054754;28;20210;-76
2022/02/02 09:46:38;;;;;;;17.47;3.10;;;;;;;-145.69;100.00;72542.75;5055181;28;20234;-76
2022/02/02 09:49:10;;;;;;;12.80;3.40;;;;;;;-145.69;100.00;72548.72;5065545;28;20203;-76
2022/02/02 09:51:42;;;;;;;23.57;3.63;;;;;;;-145.69;100.00;72544.75;5057145;28;20231;-75
2022/02/02 09:54:14;;;;;;;16.63;3.60;;;;;;;-145.69;100.00;72560.66;5056330;28;20199;-76
2022/02/02 09:57:25;;;;;;;18.73;3.00;;;;;;;-145.69;100.00;72556.69;5056110;28;20259;-76
2022/02/02 10:02:58;;;;;;;18.63;3.37;;;;;;;-145.69;100.00;72556.69;5074927;28;20194;-76
2022/02/02 10:05:30;;;;;;;15.03;4.17;;;;;;;-145.69;100.00;72544.75;5074897;28;20623;-76
2022/02/02 10:08:37;;;;;;;18.00;3.60;;;;;;;-145.69;100.00;72534.78;5074944;28;20572;-76
2022/02/02 10:11:48;;;;;;;17.40;3.20;;;;;;;-145.69;100.00;72530.81;5075045;28;20198;-76
2022/02/02 10:14:31;;;;;;;19.10;2.77;;;;;;;-145.69;100.00;72528.81;5064503;28;20199;-76
2022/02/02 10:16:58;;;;;;;16.63;3.20;;;;;;;-145.69;100.00;72508.91;5054663;28;20334;-75
2022/02/02 10:19:26;;;;;;;12.83;2.67;;;;;;;-145.69;100.00;72510.91;5054915;28;20195;-76
2022/02/02 10:21:53;;;;;;;12.10;3.00;;;;;;;-145.69;100.00;72502.94;5054919;28;20195;-77
2022/02/02 10:24:44;;;;;;;16.57;3.20;;;;;;;-145.69;100.00;72504.94;5054536;28;20199;-77
2022/02/02 10:27:22;;;;;;;17.67;4.67;;;;;;;-145.69;100.00;72498.97;5054637;28;20662;-76
2022/02/02 10:29:48;;;;;;;19.10;3.20;;;;;;;-145.69;100.00;72510.91;5058192;28;20557;-77
2022/02/02 10:32:39;;;;;;;26.30;3.87;;;;;;;-145.69;100.00;72502.94;5075124;28;20206;-76
2022/02/02 10:35:08;;;;;;;11.00;2.67;;;;;;;-145.69;100.00;72502.94;5075071;28;20194;-76
2022/02/02 10:37:36;;;;;;;15.17;3.00;;;;;;;-145.69;100.00;72491.00;5074518;28;20266;-76
2022/02/02 10:40:07;;;;;;;15.90;2.93;;;;;;;-145.69;100.00;72479.06;5074400;28;20209;-76
2022/02/02 10:42:35;;;;;;;16.73;3.27;;;;;;;-145.69;100.00;72473.09;5061050;28;20550;-77
2022/02/02 10:45:20;;;;;;;16.97;2.87;;;;;;;-145.69;100.00;72453.19;5055249;28;20621;-77
2022/02/02 10:47:50;;;;;;;18.43;2.97;;;;;;;-145.69;100.00;72425.31;5054404;28;20203;-77
2022/02/02 10:50:23;;;;;;;13.90;2.70;;;;;;;-145.69;100.00;72441.25;5055435;28;20206;-77
2022/02/02 10:53:22;;;;;;;20.73;3.40;;;;;;;-145.69;100.00;72429.28;5054175;28;20239;-76
2022/02/02 10:56:02;;;;;;;19.23;3.13;;;;;;;-145.69;100.00;72437.25;5054147;28;20289;-76
2022/02/02 10:58:52;;;;;;;15.50;3.73;;;;;;;-145.69;100.00;72439.25;5054020;28;20257;-77
2022/02/02 11:01:33;;;;;;;17.77;3.03;;;;;;;-145.69;100.00;72439.25;5073640;28;20624;-76
2022/02/02 11:06:43;;;;;;;18.20;3.28;;;;;;;-145.69;100.00;72443.22;5072994;28;20476;-76
2022/02/02 11:09:12;;;;;;;19.87;3.17;;;;;;;-145.69;100.00;72437.25;5074012;28;20205;-76
2022/02/02 11:11:44;;;;;;;14.60;2.87;;;;;;;-145.69;100.00;72445.22;5073635;28;20661;-76
2022/02/02 11:14:20;;;;;;;21.53;3.23;;;;;;;-145.69;100.00;72465.13;5062932;28;20191;-77
2022/02/02 11:16:51;;;;;;;13.10;3.07;;;;;;;-145.69;100.00;72461.13;5053794;28;20289;-76
2022/02/02 11:19:21;;;;;;;19.53;2.97;;;;;;;-145.69;100.00;72461.13;5052974;28;20207;-76
2022/02/02 11:21:47;;;;;;;17.07;2.93;;;;;;;-145.69;100.00;72467.13;5053509;28;20249;-77
2022/02/02 11:24:15;;;;;;;18.53;2.87;;;;;;;-145.69;100.00;72467.13;5053701;28;20199;-76
2022/02/02 11:26:44;;;;;;;17.50;3.20;;;;;;;-145.69;100.00;72487.00;5065634;28;20195;-76
2022/02/02 11:29:42;;;;;;;16.77;3.83;;;;;;;-145.69;100.00;72477.06;5073208;28;20213;-77
2022/02/02 11:32:10;;;;;;;16.10;2.80;;;;;;;-145.69;100.00;72481.03;5073690;28;20608;-76
2022/02/02 11:34:40;;;;;;;22.57;3.73;;;;;;;-145.69;100.00;72469.09;5062281;28;20200;-76
2022/02/02 11:37:08;;;;;;;21.20;3.10;;;;;;;-145.69;100.00;72465.13;5053285;28;20206;-76
2022/02/02 11:39:42;;;;;;;24.50;5.47;;;;;;;-145.69;100.00;72469.09;5053196;28;20223;-76
2022/02/02 11:42:46;;;;;;;21.07;3.27;;;;;;;-145.69;100.00;72491.00;5053240;28;20207;-76
2022/02/02 11:45:51;;;;;;;23.67;3.60;;;;;;;-145.69;100.00;72493.00;5053349;28;20199;-76
2022/02/02 11:48:55;;;;;;;15.03;3.17;;;;;;;-145.69;100.00;72510.91;5053411;28;20205;-76
2022/02/02 11:51:37;;;;;;;16.97;3.00;;;;;;;-145.69;100.00;72536.78;5053047;28;20222;-75
2022/02/02 11:54:04;;;;;;;22.93;3.50;;;;;;;-145.69;100.00;72560.66;5053107;28;20207;-76
2022/02/02 11:56:32;;;;;;;30.50;3.93;;;;;;;-145.69;100.00;72572.59;5052986;28;20662;-77
2022/02/02 11:59:38;;;;;;;22.47;3.60;;;;;;;-145.69;100.00;72578.56;5053024;28;20342;-76
2022/02/02 12:02:12;;;;;;;23.20;4.27;;;;;;;-145.69;100.00;72598.47;5053052;28;20223;-76
2022/02/02 12:04:56;;;;;;;23.77;4.07;;;;;;;-145.69;100.00;72616.41;5053079;28;20298;-76
2022/02/02 12:07:57;;;;;;;25.80;4.90;;;;;;;-145.69;100.00;72624.34;5052856;28;20199;-76
2022/02/02 12:10:39;;;;;;;31.77;6.75;;;;;;;-145.69;100.00;72628.34;5052281;28;20451;-76
2022/02/02 12:19:23;;;;;;;19.23;4.30;;;;;;;-145.69;100.00;72654.22;5058918;28;20577;-77
2022/02/02 12:44:37;;;;;;;23.27;4.43;;;;;;;-145.69;100.00;72662.19;5005353;28;20199;-76
2022/02/02 12:45:10;;;;;;;25.57;5.17;;;;;;;-145.69;100.00;72648.25;5017934;28;20729;-76
2022/02/02 12:53:33;;;;;;;18.30;5.47;;;;;;;-145.69;100.00;72646.25;5067683;28;20216;-76
2022/02/02 12:56:32;;;;;;;23.60;5.33;;;;;;;-145.69;100.00;72652.22;5014511;28;20204;-76
2022/02/02 12:59:35;;;;;;;14.07;4.00;;;;;;;-145.69;100.00;72644.25;5014369;28;20236;-76
2022/02/02 13:02:04;;;;;;;28.40;4.93;;;;;;;-145.69;100.00;72654.22;5054944;28;20254;-76
2022/02/02 13:04:31;;;;;;;30.23;5.60;;;;;;;-145.69;100.00;72652.22;5056253;28;20206;-77
2022/02/02 13:07:11;;;;;;;25.53;6.10;;;;;;;-145.69;100.00;72638.28;5056377;28;20216;-77
2022/02/02 13:09:39;;;;;;;31.67;6.27;;;;;;;-145.69;100.00;72652.22;5056561;28;20264;-77
2022/02/02 13:12:23;;;;;;;19.67;6.43;;;;;;;-145.69;100.00;72644.25;5056093;28;20204;-76
2022/02/02 13:15:09;;;;;;;18.70;4.70;;;;;;;-145.69;100.00;72644.25;5069421;28;20286;-76
2022/02/02 13:17:48;;;;;;;27.83;5.63;;;;;;;-145.69;100.00;72648.25;5076367;28;20226;-76
2022/02/02 13:20:17;;;;;;;15.23;4.80;;;;;;;-145.69;100.00;72652.22;5076093;28;20199;-77
2022/02/02 13:22:50;;;;;;;22.07;5.30;;;;;;;-145.69;100.00;72654.22;5075855;28;20724;-76
2022/02/02 13:25:27;;;;;;;25.07;4.50;;;;;;;-145.69;100.00;72654.22;5075589;28;20256;-76
2022/02/02 13:27:54;;;;;;;21.03;5.50;;;;;;;-145.69;100.00;72658.19;5055727;28;20650;-75
2022/02/02 13:30:42;;;;;;;18.60;5.23;;;;;;;-145.69;100.00;72660.19;5055655;28;20206;-76
2022/02/02 13:33:24;;;;;;;17.73;4.70;;;;;;;-145.69;100.00;72654.22;5055628;28;20749;-77
2022/02/02 13:36:13;;;;;;;10.93;3.47;;;;;;;-145.69;100.00;72658.19;5055415;28;20260;-76
2022/02/02 13:39:11;;;;;;;17.77;3.30;;;;;;;-145.69;100.00;72668.16;5067356;28;20219;-76
2022/02/02 13:45:09;;;;;;;20.67;6.27;;;;;;;-145.69;100.00;72656.22;5075339;28;20202;-76
2022/02/02 13:47:57;;;;;;;10.90;3.30;;;;;;;-145.69;100.00;72672.13;5065770;28;20195;-76
2022/02/02 13:53:53;;;;;;;8.93;2.67;;;;;;;-145.69;100.00;72700.00;5026433;28;20208;-75
2022/02/02 14:02:11;;;;;;;7.13;2.23;;;;;;;-145.69;100.00;72717.91;5052388;28;20252;-76
2022/02/02 14:04:48;;;;;;;14.80;2.90;;;;;;;-145.69;100.00;72723.88;5075313;28;20213;-77
2022/02/02 14:07:25;;;;;;;8.37;3.30;;;;;;;-145.69;100.00;72715.91;5075018;28;20205;-76
2022/02/02 14:10:12;;;;;;;6.00;2.40;;;;;;;-145.69;100.00;72719.91;5075276;28;20289;-76
2022/02/02 14:32:11;;;;;;;5.93;2.30;;;;;;;-145.69;100.00;72727.88;5074636;28;20205;-76
2022/02/02 14:34:37;;;;;;;4.77;1.97;;;;;;;-145.69;100.00;72735.81;5074451;28;20569;-76
2022/02/02 14:37:11;;;;;;;5.77;2.37;;;;;;;-145.69;100.00;72731.84;5038231;28;20204;-76
2022/02/02 14:39:48;;;;;;;7.73;4.23;;;;;;;-145.69;100.00;72739.81;5074097;28;20226;-76
2022/02/02 14:42:20;;;;;;;10.87;3.63;;;;;;;-145.69;100.00;72747.78;5074462;28;20252;-76
2022/02/02 14:44:48;;;;;;;10.23;4.20;;;;;;;-145.69;100.00;72737.81;5074269;28;20569;-76
2022/02/02 14:47:19;;;;;;;5.50;2.63;;;;;;;-145.69;100.00;72733.84;5074233;28;20658;-76
2022/02/02 14:49:53;;;;;;;18.27;6.90;;;;;;;-145.69;100.00;72731.84;5070378;28;20318;-76
2022/02/02 14:52:29;;;;;;;9.83;3.60;;;;;;;-145.69;100.00;72723.88;5054331;28;20254;-75
2022/02/02 14:55:38;;;;;;;7.90;4.30;;;;;;;-145.69;100.00;72727.88;5054216;28;20203;-76
2022/02/02 15:09:22;;;;;;;13.30;6.30;;;;;;;-145.69;100.00;72729.84;5034066;28;20249;-76
2022/02/02 15:28:17;;;;;;;45.90;14.00;;;;;;;-145.69;100.00;72723.88;5073187;28;20244;-76
2022/02/02 15:30:53;;;;;;;72.63;20.67;;;;;;;-145.69;100.00;72715.91;5073223;28;20565;-76
2022/02/02 15:33:24;;;;;;;7.40;4.20;;;;;;;-145.69;100.00;72711.94;5073478;28;20649;-75
2022/02/02 15:36:03;;;;;;;43.77;15.83;;;;;;;-145.69;100.00;72709.94;5073628;28;20207;-75
2022/02/02 15:38:30;;;;;;;11.87;5.53;;;;;;;-145.69;100.00;72709.94;5055693;28;20713;-76
2022/02/02 15:41:01;;;;;;;13.50;7.23;;;;;;;-145.69;100.00;72719.91;5053185;28;20203;-75
2022/02/02 15:43:35;;;;;;;8.13;4.77;;;;;;;-145.69;100.00;72717.91;5053439;28;20226;-75
2022/02/02 16:02:35;;;;;;;7.20;4.70;;;;;;;-145.69;100.00;72721.88;5058369;28;20665;-76
2022/02/02 16:05:07;;;;;;;9.27;5.63;;;;;;;-145.69;100.00;72721.88;5053155;28;20211;-76
2022/02/02 16:07:34;;;;;;;9.33;5.90;;;;;;;-145.69;100.00;72717.91;5052860;28;20662;-76
2022/02/02 16:10:05;;;;;;;8.03;5.17;;;;;;;-145.69;100.00;72721.88;5053053;28;20256;-76
2022/02/02 16:12:37;;;;;;;10.07;4.87;;;;;;;-145.69;100.00;72719.91;5053041;28;20215;-76
2022/02/02 16:15:16;;;;;;;12.43;6.27;;;;;;;-145.69;100.00;72719.91;5072717;28;20680;-75
2022/02/02 16:18:02;;;;;;;9.53;5.47;;;;;;;-145.69;100.00;72715.91;5072882;28;20681;-76
2022/02/02 16:31:39;;;;;;;13.30;6.07;;;;;;;-145.69;100.00;72725.88;5052550;28;20248;-75
2022/02/02 16:37:09;;;;;;;9.37;6.40;;;;;;;-145.69;100.00;72737.81;5013869;28;20199;-75
2022/02/02 16:39:47;;;;;;;10.87;6.23;;;;;;;-145.69;100.00;72745.78;5030414;28;20235;-75
2022/02/02 16:44:57;;;;;;;8.33;5.03;;;;;;;-145.69;100.00;72743.78;5052807;28;20269;-74
2022/02/02 16:47:24;;;;;;;10.93;6.10;;;;;;;-145.69;100.00;72749.75;5052569;28;20605;-74
2022/02/02 16:49:50;;;;;;;11.43;5.23;;;;;;;-145.69;100.00;72747.78;5062186;28;20203;-75
2022/02/02 16:52:22;;;;;;;8.57;4.70;;;;;;;-145.69;100.00;72751.75;5072539;28;20203;-74